KDKK/DKK METAR and TAF weather

Enter ICAO airport designator
Station Type Date Time Source
KDKK METAR 2019/12/12 11:53 UTC NOAA

KDKK 121153Z AUTO 19007KT 10SM OVC028 M05/M09 A3060 RMK AO2 SLP373 70002 T10501094 11033 21050 51007


Station Type Date Time Source
KDKK Decoded METAR 2019/12/12 11:53 UTC NOAA

CHAUTAUQUA COUNTY/DUNKIRK, NY, United States (KDKK) 42-30N 079-17W 202M
Dec 12, 2019 - 06:53 AM EST / 2019.12.12 1153 UTC
Wind: from the S (190 degrees) at 8 MPH (7 KT):0
Visibility: 10 mile(s):0
Sky conditions: overcast
Temperature: 23.0 F (-5.0 C)
Windchill: 14 F (-10 C):1
Dew Point: 15.1 F (-9.4 C)
Relative Humidity: 71%
Pressure (altimeter): 30.6 in. Hg (1036 hPa)
Pressure tendency: 0.02 inches (0.7 hPa) higher than three hours ago
ob: KDKK 121153Z AUTO 19007KT 10SM OVC028 M05/M09 A3060 RMK AO2 SLP373 70002 T10501094 11033 21050 51007
cycle: 12

Station Type Date Time Source
KDKK TAF UTC NOAA

Error!

Example: see airport list